sensor_id;sensor_type;location;lat;lon;timestamp;pressure;altitude;pressure_sealevel;temperature;humidity
51972;BME280;37991;49.662;10.060;2022-09-03T00:02:21;99074.84;;;11.68;74.01
51972;BME280;37991;49.662;10.060;2022-09-03T00:08:01;99067.56;;;11.60;74.26
51972;BME280;37991;49.662;10.060;2022-09-03T00:10:38;99066.00;;;11.58;74.14
51972;BME280;37991;49.662;10.060;2022-09-03T00:13:09;99064.81;;;11.51;74.38
51972;BME280;37991;49.662;10.060;2022-09-03T00:15:38;99072.09;;;11.47;74.44
51972;BME280;37991;49.662;10.060;2022-09-03T00:18:13;99078.06;;;11.49;74.46
51972;BME280;37991;49.662;10.060;2022-09-03T00:20:48;99083.31;;;11.49;74.30
51972;BME280;37991;49.662;10.060;2022-09-03T00:23:19;99085.44;;;11.44;74.41
51972;BME280;37991;49.662;10.060;2022-09-03T00:28:46;99092.34;;;11.45;74.72
51972;BME280;37991;49.662;10.060;2022-09-03T00:31:18;99095.13;;;11.44;74.53
51972;BME280;37991;49.662;10.060;2022-09-03T00:33:47;99095.34;;;11.40;74.78
51972;BME280;37991;49.662;10.060;2022-09-03T00:36:23;99090.34;;;11.37;74.86
51972;BME280;37991;49.662;10.060;2022-09-03T00:38:52;99094.16;;;11.33;75.22
51972;BME280;37991;49.662;10.060;2022-09-03T00:41:28;99089.16;;;11.30;75.55
51972;BME280;37991;49.662;10.060;2022-09-03T00:46:49;99102.72;;;11.24;75.97
51972;BME280;37991;49.662;10.060;2022-09-03T00:49:39;99097.13;;;11.29;76.25
51972;BME280;37991;49.662;10.060;2022-09-03T00:52:31;99096.06;;;11.31;76.14
51972;BME280;37991;49.662;10.060;2022-09-03T00:57:50;99087.69;;;11.26;76.37
51972;BME280;37991;49.662;10.060;2022-09-03T01:00:19;99087.47;;;11.29;76.27
51972;BME280;37991;49.662;10.060;2022-09-03T01:03:26;99085.56;;;11.31;76.00
51972;BME280;37991;49.662;10.060;2022-09-03T01:06:18;99080.31;;;11.31;75.77
51972;BME280;37991;49.662;10.060;2022-09-03T01:09:06;99082.34;;;11.39;75.69
51972;BME280;37991;49.662;10.060;2022-09-03T01:14:33;99084.72;;;11.31;76.09
51972;BME280;37991;49.662;10.060;2022-09-03T01:20:00;99084.59;;;11.32;75.86
51972;BME280;37991;49.662;10.060;2022-09-03T01:23:00;99086.88;;;11.26;76.08
51972;BME280;37991;49.662;10.060;2022-09-03T01:28:39;99097.94;;;11.29;76.00
51972;BME280;37991;49.662;10.060;2022-09-03T01:46:11;99085.31;;;11.12;76.82
51972;BME280;37991;49.662;10.060;2022-09-03T01:48:18;99086.59;;;11.06;77.35
51972;BME280;37991;49.662;10.060;2022-09-03T01:50:56;99083.66;;;11.11;76.90
51972;BME280;37991;49.662;10.060;2022-09-03T01:58:32;99072.06;;;11.02;77.29
51972;BME280;37991;49.662;10.060;2022-09-03T02:01:03;99075.75;;;11.00;77.60
51972;BME280;37991;49.662;10.060;2022-09-03T02:03:38;99073.50;;;10.95;77.61
51972;BME280;37991;49.662;10.060;2022-09-03T02:06:06;99081.00;;;11.00;77.49
51972;BME280;37991;49.662;10.060;2022-09-03T02:08:32;99079.56;;;10.96;77.53
51972;BME280;37991;49.662;10.060;2022-09-03T02:10:57;99073.34;;;10.85;78.10
51972;BME280;37991;49.662;10.060;2022-09-03T02:13:31;99074.28;;;10.84;78.21
51972;BME280;37991;49.662;10.060;2022-09-03T02:16:01;99075.25;;;10.83;78.19
51972;BME280;37991;49.662;10.060;2022-09-03T02:18:30;99075.84;;;10.87;78.13
51972;BME280;37991;49.662;10.060;2022-09-03T02:20:58;99080.25;;;10.86;78.20
51972;BME280;37991;49.662;10.060;2022-09-03T02:23:25;99072.13;;;10.78;78.55
51972;BME280;37991;49.662;10.060;2022-09-03T02:25:55;99075.13;;;10.85;78.45
51972;BME280;37991;49.662;10.060;2022-09-03T02:28:22;99085.94;;;10.80;78.53
51972;BME280;37991;49.662;10.060;2022-09-03T02:30:47;99085.94;;;10.80;78.61
51972;BME280;37991;49.662;10.060;2022-09-03T02:33:13;99081.53;;;10.81;78.54
51972;BME280;37991;49.662;10.060;2022-09-03T02:35:40;99084.06;;;10.82;78.74
51972;BME280;37991;49.662;10.060;2022-09-03T02:38:20;99077.13;;;10.81;78.79
51972;BME280;37991;49.662;10.060;2022-09-03T02:40:47;99081.06;;;10.76;78.94
51972;BME280;37991;49.662;10.060;2022-09-03T02:43:19;99079.97;;;10.78;78.96
51972;BME280;37991;49.662;10.060;2022-09-03T02:45:47;99074.03;;;10.76;79.11
51972;BME280;37991;49.662;10.060;2022-09-03T02:48:17;99075.94;;;10.74;79.34
51972;BME280;37991;49.662;10.060;2022-09-03T02:50:45;99069.47;;;10.67;79.53
51972;BME280;37991;49.662;10.060;2022-09-03T02:53:11;99076.75;;;10.63;79.28
51972;BME280;37991;49.662;10.060;2022-09-03T02:55:36;99069.47;;;10.67;79.61
51972;BME280;37991;49.662;10.060;2022-09-03T02:58:02;99069.47;;;10.67;79.57
51972;BME280;37991;49.662;10.060;2022-09-03T03:00:28;99069.72;;;10.64;79.75
51972;BME280;37991;49.662;10.060;2022-09-03T03:02:54;99069.34;;;10.57;80.12
51972;BME280;37991;49.662;10.060;2022-09-03T03:05:25;99067.81;;;10.66;79.94
51972;BME280;37991;49.662;10.060;2022-09-03T03:07:52;99072.78;;;10.58;80.21
51972;BME280;37991;49.662;10.060;2022-09-03T03:10:17;99073.00;;;10.55;80.60
51972;BME280;37991;49.662;10.060;2022-09-03T03:12:42;99070.16;;;10.58;80.40
51972;BME280;37991;49.662;10.060;2022-09-03T03:15:08;99076.97;;;10.60;80.21
51972;BME280;37991;49.662;10.060;2022-09-03T03:17:33;99076.13;;;10.60;80.31
51972;BME280;37991;49.662;10.060;2022-09-03T03:19:59;99076.34;;;10.57;80.35
51972;BME280;37991;49.662;10.060;2022-09-03T03:22:24;99082.06;;;10.62;80.33
51972;BME280;37991;49.662;10.060;2022-09-03T03:24:49;99082.31;;;10.59;80.60
51972;BME280;37991;49.662;10.060;2022-09-03T03:27:15;99070.75;;;10.61;80.63
51972;BME280;37991;49.662;10.060;2022-09-03T03:29:40;99076.84;;;10.62;80.88
51972;BME280;37991;49.662;10.060;2022-09-03T03:32:06;99076.22;;;10.58;80.37
51972;BME280;37991;49.662;10.060;2022-09-03T03:34:31;99078.75;;;10.60;80.40
51972;BME280;37991;49.662;10.060;2022-09-03T03:36:56;99076.75;;;10.63;80.36
51972;BME280;37991;49.662;10.060;2022-09-03T03:39:21;99080.63;;;10.58;80.85
51972;BME280;37991;49.662;10.060;2022-09-03T03:41:47;99079.34;;;10.63;80.21
51972;BME280;37991;49.662;10.060;2022-09-03T03:44:12;99076.97;;;10.60;80.49
51972;BME280;37991;49.662;10.060;2022-09-03T03:46:39;99077.91;;;10.59;80.85
51972;BME280;37991;49.662;10.060;2022-09-03T03:49:06;99086.47;;;10.61;80.64
51972;BME280;37991;49.662;10.060;2022-09-03T03:51:33;99087.53;;;10.59;80.78
51972;BME280;37991;49.662;10.060;2022-09-03T03:53:59;99089.47;;;10.57;80.98
51972;BME280;37991;49.662;10.060;2022-09-03T03:56:25;99092.69;;;10.60;80.87
51972;BME280;37991;49.662;10.060;2022-09-03T03:58:52;99089.94;;;10.62;80.82
51972;BME280;37991;49.662;10.060;2022-09-03T04:01:23;99085.66;;;10.61;80.95
51972;BME280;37991;49.662;10.060;2022-09-03T04:03:48;99092.44;;;10.63;80.74
51972;BME280;37991;49.662;10.060;2022-09-03T04:06:17;99087.22;;;10.63;80.92
51972;BME280;37991;49.662;10.060;2022-09-03T04:08:44;99090.75;;;10.62;81.13
51972;BME280;37991;49.662;10.060;2022-09-03T04:11:12;99082.91;;;10.62;80.83
51972;BME280;37991;49.662;10.060;2022-09-03T04:13:40;99084.59;;;10.63;81.21
51972;BME280;37991;49.662;10.060;2022-09-03T04:16:13;99080.53;;;10.59;81.23
51972;BME280;37991;49.662;10.060;2022-09-03T04:18:39;99067.44;;;10.59;81.24
51972;BME280;37991;49.662;10.060;2022-09-03T04:21:07;99075.56;;;10.67;81.21
51972;BME280;37991;49.662;10.060;2022-09-03T04:23:34;99070.66;;;10.63;81.12
51972;BME280;37991;49.662;10.060;2022-09-03T04:26:00;99079.59;;;10.60;81.46
51972;BME280;37991;49.662;10.060;2022-09-03T04:28:26;99072.31;;;10.64;81.21
51972;BME280;37991;49.662;10.060;2022-09-03T04:30:52;99071.13;;;10.68;81.03
51972;BME280;37991;49.662;10.060;2022-09-03T04:33:17;99068.19;;;10.73;81.26
51972;BME280;37991;49.662;10.060;2022-09-03T04:35:43;99072.59;;;10.72;81.00
51972;BME280;37991;49.662;10.060;2022-09-03T04:38:08;99063.19;;;10.69;81.10
51972;BME280;37991;49.662;10.060;2022-09-03T04:40:34;99069.03;;;10.73;81.43
51972;BME280;37991;49.662;10.060;2022-09-03T04:42:59;99066.03;;;10.78;81.22
51972;BME280;37991;49.662;10.060;2022-09-03T04:45:26;99080.47;;;10.83;81.28
51972;BME280;37991;49.662;10.060;2022-09-03T04:48:02;99080.97;;;10.88;81.08
51972;BME280;37991;49.662;10.060;2022-09-03T04:50:29;99080.84;;;10.90;81.15
51972;BME280;37991;49.662;10.060;2022-09-03T04:53:00;99078.72;;;10.95;81.49
51972;BME280;37991;49.662;10.060;2022-09-03T04:55:26;99079.94;;;11.02;81.23
51972;BME280;37991;49.662;10.060;2022-09-03T04:57:52;99085.53;;;11.09;81.07
51972;BME280;37991;49.662;10.060;2022-09-03T05:00:17;99081.72;;;11.13;81.28
51972;BME280;37991;49.662;10.060;2022-09-03T05:02:43;99084.34;;;11.13;81.34
51972;BME280;37991;49.662;10.060;2022-09-03T05:05:11;99094.38;;;11.19;81.16
51972;BME280;37991;49.662;10.060;2022-09-03T05:07:37;99092.00;;;11.27;81.35
51972;BME280;37991;49.662;10.060;2022-09-03T05:10:07;99094.63;;;11.27;81.59
51972;BME280;37991;49.662;10.060;2022-09-03T05:12:33;99096.66;;;11.35;81.50
51972;BME280;37991;49.662;10.060;2022-09-03T05:14:59;99098.94;;;11.39;81.07
51972;BME280;37991;49.662;10.060;2022-09-03T05:17:25;99094.16;;;11.45;81.18
51972;BME280;37991;49.662;10.060;2022-09-03T05:19:51;99097.72;;;11.55;80.97
51972;BME280;37991;49.662;10.060;2022-09-03T05:22:18;99103.69;;;11.57;81.02
51972;BME280;37991;49.662;10.060;2022-09-03T05:24:48;99090.34;;;11.60;81.15
51972;BME280;37991;49.662;10.060;2022-09-03T05:27:15;99090.59;;;11.68;80.74
51972;BME280;37991;49.662;10.060;2022-09-03T05:29:44;99088.91;;;11.67;81.21
51972;BME280;37991;49.662;10.060;2022-09-03T05:32:10;99080.31;;;11.76;81.03
51972;BME280;37991;49.662;10.060;2022-09-03T05:34:36;99080.78;;;11.81;80.95
51972;BME280;37991;49.662;10.060;2022-09-03T05:37:02;99084.03;;;11.85;81.30
51972;BME280;37991;49.662;10.060;2022-09-03T05:39:27;99081.88;;;11.90;81.50
51972;BME280;37991;49.662;10.060;2022-09-03T05:41:52;99089.38;;;11.95;81.17
51972;BME280;37991;49.662;10.060;2022-09-03T05:44:18;99090.81;;;11.99;81.10
51972;BME280;37991;49.662;10.060;2022-09-03T05:46:48;99090.06;;;12.08;81.13
51972;BME280;37991;49.662;10.060;2022-09-03T05:49:16;99088.59;;;12.15;80.98
51972;BME280;37991;49.662;10.060;2022-09-03T05:51:41;99090.50;;;12.24;81.04
51972;BME280;37991;49.662;10.060;2022-09-03T05:54:09;99084.50;;;12.33;81.34
51972;BME280;37991;49.662;10.060;2022-09-03T05:56:36;99084.84;;;12.40;81.35
51972;BME280;37991;49.662;10.060;2022-09-03T05:59:04;99085.75;;;12.50;80.62
51972;BME280;37991;49.662;10.060;2022-09-03T06:01:43;99076.53;;;12.56;81.08
51972;BME280;37991;49.662;10.060;2022-09-03T06:04:11;99079.97;;;12.68;79.90
51972;BME280;37991;49.662;10.060;2022-09-03T06:06:39;99078.63;;;12.73;80.48
51972;BME280;37991;49.662;10.060;2022-09-03T06:09:10;99084.88;;;12.82;80.08
51972;BME280;37991;49.662;10.060;2022-09-03T06:11:38;99080.56;;;12.92;80.12
51972;BME280;37991;49.662;10.060;2022-09-03T06:14:06;99078.91;;;13.01;80.15
51972;BME280;37991;49.662;10.060;2022-09-03T06:16:36;99085.06;;;13.11;79.93
51972;BME280;37991;49.662;10.060;2022-09-03T06:19:02;99074.47;;;13.22;79.10
51972;BME280;37991;49.662;10.060;2022-09-03T06:21:31;99077.91;;;13.34;78.71
51972;BME280;37991;49.662;10.060;2022-09-03T06:23:57;99087.94;;;13.50;78.14
51972;BME280;37991;49.662;10.060;2022-09-03T06:26:23;99089.66;;;13.61;76.40
51972;BME280;37991;49.662;10.060;2022-09-03T06:28:49;99079.72;;;13.74;75.36
51972;BME280;37991;49.662;10.060;2022-09-03T06:31:16;99080.19;;;13.89;75.03
51972;BME280;37991;49.662;10.060;2022-09-03T06:33:43;99080.50;;;14.05;75.22
51972;BME280;37991;49.662;10.060;2022-09-03T06:36:10;99079.53;;;14.16;73.91
51972;BME280;37991;49.662;10.060;2022-09-03T06:38:38;99071.91;;;14.23;75.43
51972;BME280;37991;49.662;10.060;2022-09-03T06:41:06;99078.16;;;14.22;76.21
51972;BME280;37991;49.662;10.060;2022-09-03T06:43:34;99071.38;;;14.29;74.86
51972;BME280;37991;49.662;10.060;2022-09-03T06:46:06;99068.34;;;14.33;76.92
51972;BME280;37991;49.662;10.060;2022-09-03T06:48:33;99073.88;;;14.40;77.21
51972;BME280;37991;49.662;10.060;2022-09-03T06:51:01;99076.78;;;14.47;75.40
51972;BME280;37991;49.662;10.060;2022-09-03T06:53:29;99079.88;;;14.61;75.08
51972;BME280;37991;49.662;10.060;2022-09-03T06:56:07;99074.88;;;14.68;73.45
51972;BME280;37991;49.662;10.060;2022-09-03T06:58:38;99069.59;;;14.87;71.79
51972;BME280;37991;49.662;10.060;2022-09-03T07:01:09;99069.81;;;15.14;72.24
51972;BME280;37991;49.662;10.060;2022-09-03T07:03:36;99067.88;;;15.16;70.33
51972;BME280;37991;49.662;10.060;2022-09-03T07:06:06;99071.25;;;15.45;72.40
51972;BME280;37991;49.662;10.060;2022-09-03T07:08:32;99077.84;;;15.59;68.53
51972;BME280;37991;49.662;10.060;2022-09-03T07:10:59;99065.09;;;15.54;70.73
51972;BME280;37991;49.662;10.060;2022-09-03T07:13:25;99075.38;;;15.57;70.19
51972;BME280;37991;49.662;10.060;2022-09-03T07:15:59;99074.53;;;15.67;72.34
51972;BME280;37991;49.662;10.060;2022-09-03T07:18:25;99081.00;;;15.72;69.88
51972;BME280;37991;49.662;10.060;2022-09-03T07:20:50;99079.13;;;15.92;69.33
51972;BME280;37991;49.662;10.060;2022-09-03T07:23:16;99075.13;;;16.24;68.16
51972;BME280;37991;49.662;10.060;2022-09-03T07:25:42;99081.28;;;16.24;69.32
51972;BME280;37991;49.662;10.060;2022-09-03T07:28:07;99062.47;;;16.27;66.97
51972;BME280;37991;49.662;10.060;2022-09-03T07:30:33;99069.09;;;16.67;65.84
51972;BME280;37991;49.662;10.060;2022-09-03T07:32:58;99067.88;;;16.98;65.23
51972;BME280;37991;49.662;10.060;2022-09-03T07:35:27;99068.53;;;17.52;66.27
51972;BME280;37991;49.662;10.060;2022-09-03T07:37:52;99070.25;;;18.11;64.23
51972;BME280;37991;49.662;10.060;2022-09-03T07:40:19;99056.88;;;18.29;63.72
51972;BME280;37991;49.662;10.060;2022-09-03T07:42:44;99055.88;;;18.30;62.16
51972;BME280;37991;49.662;10.060;2022-09-03T07:45:12;99056.91;;;18.46;62.73
51972;BME280;37991;49.662;10.060;2022-09-03T07:47:45;99054.09;;;18.96;60.71
51972;BME280;37991;49.662;10.060;2022-09-03T07:50:11;99058.03;;;19.25;59.04
51972;BME280;37991;49.662;10.060;2022-09-03T07:52:36;99062.59;;;19.64;59.23
51972;BME280;37991;49.662;10.060;2022-09-03T07:55:02;99060.66;;;19.89;57.86
51972;BME280;37991;49.662;10.060;2022-09-03T07:57:29;99065.31;;;20.18;56.28
51972;BME280;37991;49.662;10.060;2022-09-03T07:59:54;99060.09;;;20.56;55.26
51972;BME280;37991;49.662;10.060;2022-09-03T08:02:20;99056.63;;;20.70;55.52
51972;BME280;37991;49.662;10.060;2022-09-03T08:04:45;99059.56;;;20.98;54.45
51972;BME280;37991;49.662;10.060;2022-09-03T08:07:11;99062.13;;;20.92;53.96
51972;BME280;37991;49.662;10.060;2022-09-03T08:09:36;99059.81;;;20.88;54.44
51972;BME280;37991;49.662;10.060;2022-09-03T08:12:02;99054.78;;;20.94;53.75
51972;BME280;37991;49.662;10.060;2022-09-03T08:14:28;99056.38;;;20.65;55.39
51972;BME280;37991;49.662;10.060;2022-09-03T08:16:56;99054.09;;;20.77;54.03
51972;BME280;37991;49.662;10.060;2022-09-03T08:19:21;99052.91;;;20.79;53.68
51972;BME280;37991;49.662;10.060;2022-09-03T08:21:47;99055.47;;;20.73;54.75
51972;BME280;37991;49.662;10.060;2022-09-03T08:24:14;99052.22;;;20.62;54.09
51972;BME280;37991;49.662;10.060;2022-09-03T08:26:41;99056.88;;;20.60;54.04
51972;BME280;37991;49.662;10.060;2022-09-03T08:29:08;99059.94;;;20.72;53.62
51972;BME280;37991;49.662;10.060;2022-09-03T08:31:34;99058.94;;;20.73;54.53
51972;BME280;37991;49.662;10.060;2022-09-03T08:34:02;99062.91;;;20.77;53.58
51972;BME280;37991;49.662;10.060;2022-09-03T08:36:32;99057.81;;;20.67;53.71
51972;BME280;37991;49.662;10.060;2022-09-03T08:39:00;99059.69;;;20.82;53.89
51972;BME280;37991;49.662;10.060;2022-09-03T08:47:10;99059.81;;;21.41;52.40
51972;BME280;37991;49.662;10.060;2022-09-03T08:52:34;99058.16;;;21.70;51.71
51972;BME280;37991;49.662;10.060;2022-09-03T08:55:58;99056.63;;;21.82;51.50
51972;BME280;37991;49.662;10.060;2022-09-03T08:58:02;99059.31;;;21.82;51.25
51972;BME280;37991;49.662;10.060;2022-09-03T09:00:44;99062.25;;;21.87;51.52
51972;BME280;37991;49.662;10.060;2022-09-03T09:03:30;99047.88;;;22.03;50.95
51972;BME280;37991;49.662;10.060;2022-09-03T09:09:00;99044.09;;;21.97;50.82
51972;BME280;37991;49.662;10.060;2022-09-03T09:13:58;99055.66;;;22.04;51.14
51972;BME280;37991;49.662;10.060;2022-09-03T09:20:20;99057.09;;;21.86;52.15
51972;BME280;37991;49.662;10.060;2022-09-03T09:22:54;99046.38;;;22.15;52.68
51972;BME280;37991;49.662;10.060;2022-09-03T09:25:22;99035.59;;;22.23;51.14
51972;BME280;37991;49.662;10.060;2022-09-03T09:27:54;99032.75;;;22.25;50.98
51972;BME280;37991;49.662;10.060;2022-09-03T09:30:22;99035.28;;;22.55;50.37
51972;BME280;37991;49.662;10.060;2022-09-03T09:32:48;99037.13;;;22.54;50.53
51972;BME280;37991;49.662;10.060;2022-09-03T09:35:16;99033.38;;;22.48;50.47
51972;BME280;37991;49.662;10.060;2022-09-03T09:37:55;99033.00;;;22.51;50.69
51972;BME280;37991;49.662;10.060;2022-09-03T09:40:23;99030.22;;;22.60;51.57
51972;BME280;37991;49.662;10.060;2022-09-03T09:42:50;99030.72;;;22.48;50.92
51972;BME280;37991;49.662;10.060;2022-09-03T09:45:16;99030.97;;;22.32;51.07
51972;BME280;37991;49.662;10.060;2022-09-03T09:47:41;99031.94;;;22.24;51.52
51972;BME280;37991;49.662;10.060;2022-09-03T09:50:18;99021.81;;;22.41;54.01
51972;BME280;37991;49.662;10.060;2022-09-03T09:52:45;99026.94;;;22.64;54.42
51972;BME280;37991;49.662;10.060;2022-09-03T09:55:17;99018.56;;;22.67;52.72
51972;BME280;37991;49.662;10.060;2022-09-03T09:57:44;99020.69;;;22.50;51.29
51972;BME280;37991;49.662;10.060;2022-09-03T10:00:11;99023.53;;;22.49;54.29
51972;BME280;37991;49.662;10.060;2022-09-03T10:02:52;99018.41;;;22.47;52.26
51972;BME280;37991;49.662;10.060;2022-09-03T10:05:24;99012.53;;;22.59;51.90
51972;BME280;37991;49.662;10.060;2022-09-03T10:08:05;99013.25;;;22.74;51.67
51972;BME280;37991;49.662;10.060;2022-09-03T10:10:35;99018.88;;;22.79;51.26
51972;BME280;37991;49.662;10.060;2022-09-03T10:13:09;99012.06;;;22.77;52.19
51972;BME280;37991;49.662;10.060;2022-09-03T10:16:03;99009.09;;;22.93;52.83
51972;BME280;37991;49.662;10.060;2022-09-03T10:18:48;99005.97;;;23.11;51.02
51972;BME280;37991;49.662;10.060;2022-09-03T10:21:21;99010.59;;;23.30;51.31
51972;BME280;37991;49.662;10.060;2022-09-03T10:24:03;99011.38;;;23.24;52.15
51972;BME280;37991;49.662;10.060;2022-09-03T10:26:40;99006.25;;;23.29;50.95
51972;BME280;37991;49.662;10.060;2022-09-03T10:29:08;99000.09;;;23.29;52.86
51972;BME280;37991;49.662;10.060;2022-09-03T10:37:31;99000.53;;;22.97;53.31
51972;BME280;37991;49.662;10.060;2022-09-03T10:48:47;99004.59;;;22.93;53.97
51972;BME280;37991;49.662;10.060;2022-09-03T10:51:22;98996.78;;;22.92;51.95
51972;BME280;37991;49.662;10.060;2022-09-03T10:54:04;98997.53;;;23.07;54.54
51972;BME280;37991;49.662;10.060;2022-09-03T10:57:02;99000.81;;;23.09;53.80
51972;BME280;37991;49.662;10.060;2022-09-03T10:59:58;99005.19;;;23.17;53.62
51972;BME280;37991;49.662;10.060;2022-09-03T11:02:36;99001.00;;;23.08;54.39
51972;BME280;37991;49.662;10.060;2022-09-03T11:05:14;98996.06;;;23.05;52.06
51972;BME280;37991;49.662;10.060;2022-09-03T11:07:47;98993.44;;;23.11;51.74
51972;BME280;37991;49.662;10.060;2022-09-03T11:10:34;98988.66;;;23.07;52.26
51972;BME280;37991;49.662;10.060;2022-09-03T11:13:39;98982.84;;;22.96;53.17
51972;BME280;37991;49.662;10.060;2022-09-03T11:16:05;98976.50;;;22.97;52.54
51972;BME280;37991;49.662;10.060;2022-09-03T11:18:40;98973.44;;;23.01;52.90
51972;BME280;37991;49.662;10.060;2022-09-03T11:21:11;98963.63;;;23.08;54.77
51972;BME280;37991;49.662;10.060;2022-09-03T11:23:44;98962.44;;;23.17;52.97
51972;BME280;37991;49.662;10.060;2022-09-03T11:26:14;98952.34;;;23.12;51.99
51972;BME280;37991;49.662;10.060;2022-09-03T11:28:46;98950.31;;;23.21;52.72
51972;BME280;37991;49.662;10.060;2022-09-03T11:34:13;98948.28;;;23.23;52.09
51972;BME280;37991;49.662;10.060;2022-09-03T11:36:39;98943.56;;;23.25;52.75
51972;BME280;37991;49.662;10.060;2022-09-03T11:39:12;98939.78;;;23.13;52.46
51972;BME280;37991;49.662;10.060;2022-09-03T11:41:42;98946.81;;;23.14;53.52
51972;BME280;37991;49.662;10.060;2022-09-03T11:44:17;98949.66;;;23.12;53.05
51972;BME280;37991;49.662;10.060;2022-09-03T11:47:19;98963.00;;;23.12;53.44
51972;BME280;37991;49.662;10.060;2022-09-03T11:49:51;98951.13;;;23.15;53.19
51972;BME280;37991;49.662;10.060;2022-09-03T11:52:27;98940.50;;;23.28;54.28
51972;BME280;37991;49.662;10.060;2022-09-03T11:54:53;98930.88;;;23.40;54.25
51972;BME280;37991;49.662;10.060;2022-09-03T11:57:28;98928.00;;;23.42;55.43
51972;BME280;37991;49.662;10.060;2022-09-03T12:00:07;98924.88;;;23.32;54.82
51972;BME280;37991;49.662;10.060;2022-09-03T12:02:35;98928.75;;;23.29;52.89
51972;BME280;37991;49.662;10.060;2022-09-03T12:05:35;98934.03;;;23.09;53.06
51972;BME280;37991;49.662;10.060;2022-09-03T12:08:35;98931.56;;;23.08;54.74
51972;BME280;37991;49.662;10.060;2022-09-03T12:11:38;98917.63;;;23.19;53.71
51972;BME280;37991;49.662;10.060;2022-09-03T12:14:15;98916.63;;;23.20;53.28
51972;BME280;37991;49.662;10.060;2022-09-03T12:16:58;98918.72;;;23.31;53.10
51972;BME280;37991;49.662;10.060;2022-09-03T12:22:12;98930.75;;;23.07;53.13
51972;BME280;37991;49.662;10.060;2022-09-03T12:24:39;98933.03;;;23.10;53.11
51972;BME280;37991;49.662;10.060;2022-09-03T12:27:09;98930.97;;;23.12;53.16
51972;BME280;37991;49.662;10.060;2022-09-03T12:29:36;98931.59;;;23.14;53.60
51972;BME280;37991;49.662;10.060;2022-09-03T12:32:07;98929.97;;;23.13;54.17
51972;BME280;37991;49.662;10.060;2022-09-03T12:34:34;98933.06;;;23.17;54.66
51972;BME280;37991;49.662;10.060;2022-09-03T12:37:02;98929.38;;;23.25;54.85
51972;BME280;37991;49.662;10.060;2022-09-03T12:39:28;98928.75;;;23.29;54.58
51972;BME280;37991;49.662;10.060;2022-09-03T12:47:15;98946.31;;;23.04;52.65
51972;BME280;37991;49.662;10.060;2022-09-03T12:49:49;98943.03;;;23.02;53.52
51972;BME280;37991;49.662;10.060;2022-09-03T12:52:27;98946.81;;;23.14;53.07
51972;BME280;37991;49.662;10.060;2022-09-03T12:55:00;98946.41;;;23.17;53.72
51972;BME280;37991;49.662;10.060;2022-09-03T12:57:36;98939.00;;;23.19;53.29
51972;BME280;37991;49.662;10.060;2022-09-03T13:00:06;98935.75;;;23.24;53.04
51972;BME280;37991;49.662;10.060;2022-09-03T13:02:46;98933.25;;;23.22;53.04
51972;BME280;37991;49.662;10.060;2022-09-03T13:05:20;98938.78;;;23.14;53.17
51972;BME280;37991;49.662;10.060;2022-09-03T13:07:52;98944.47;;;22.97;53.53
51972;BME280;37991;49.662;10.060;2022-09-03T13:10:25;98945.59;;;22.88;54.41
51972;BME280;37991;49.662;10.060;2022-09-03T13:12:51;98947.47;;;22.88;54.66
51972;BME280;37991;49.662;10.060;2022-09-03T13:15:20;98954.88;;;22.92;54.62
51972;BME280;37991;49.662;10.060;2022-09-03T13:18:01;98946.84;;;22.92;53.91
51972;BME280;37991;49.662;10.060;2022-09-03T13:20:53;98939.88;;;22.91;54.13
51972;BME280;37991;49.662;10.060;2022-09-03T13:26:20;98943.13;;;22.87;53.60
51972;BME280;37991;49.662;10.060;2022-09-03T13:29:18;98937.34;;;22.83;54.26
51972;BME280;37991;49.662;10.060;2022-09-03T13:31:52;98940.25;;;22.88;54.11
51972;BME280;37991;49.662;10.060;2022-09-03T13:37:04;98928.97;;;22.93;54.23
51972;BME280;37991;49.662;10.060;2022-09-03T13:39:42;98929.69;;;23.02;54.14
51972;BME280;37991;49.662;10.060;2022-09-03T13:42:23;98929.31;;;23.11;53.80
51972;BME280;37991;49.662;10.060;2022-09-03T13:44:58;98927.31;;;23.20;53.69
51972;BME280;37991;49.662;10.060;2022-09-03T13:47:39;98917.66;;;23.26;53.09
51972;BME280;37991;49.662;10.060;2022-09-03T13:50:28;98922.22;;;23.32;52.78
51972;BME280;37991;49.662;10.060;2022-09-03T13:52:59;98927.13;;;23.28;52.92
51972;BME280;37991;49.662;10.060;2022-09-03T13:55:52;98934.53;;;23.26;53.10
51972;BME280;37991;49.662;10.060;2022-09-03T13:58:49;98931.41;;;23.23;53.25
51972;BME280;37991;49.662;10.060;2022-09-03T14:01:38;98930.06;;;23.40;52.56
51972;BME280;37991;49.662;10.060;2022-09-03T14:04:13;98930.44;;;23.30;52.77
51972;BME280;37991;49.662;10.060;2022-09-03T14:06:47;98942.94;;;23.23;52.53
51972;BME280;37991;49.662;10.060;2022-09-03T14:17:00;98935.34;;;23.20;52.60
51972;BME280;37991;49.662;10.060;2022-09-03T14:19:51;98934.53;;;23.26;52.81
51972;BME280;37991;49.662;10.060;2022-09-03T14:22:28;98925.09;;;23.30;52.84
51972;BME280;37991;49.662;10.060;2022-09-03T14:25:02;98929.00;;;23.34;52.68
51972;BME280;37991;49.662;10.060;2022-09-03T14:27:30;98926.38;;;23.48;52.50
51972;BME280;37991;49.662;10.060;2022-09-03T14:30:05;98927.00;;;23.43;52.51
51972;BME280;37991;49.662;10.060;2022-09-03T14:32:40;98942.22;;;23.42;52.46
51972;BME280;37991;49.662;10.060;2022-09-03T14:38:14;98934.56;;;23.33;52.70
51972;BME280;37991;49.662;10.060;2022-09-03T14:41:06;98924.31;;;23.36;52.46
51972;BME280;37991;49.662;10.060;2022-09-03T14:55:17;98903.28;;;23.27;52.46
51972;BME280;37991;49.662;10.060;2022-09-03T14:58:08;98900.19;;;23.23;52.80
51972;BME280;37991;49.662;10.060;2022-09-03T15:00:59;98911.88;;;23.22;52.51
51972;BME280;37991;49.662;10.060;2022-09-03T15:08:47;98908.09;;;23.03;53.41
51972;BME280;37991;49.662;10.060;2022-09-03T15:11:16;98914.69;;;23.01;53.93